Time;durP1;ratioP1;P1;durP2;ratioP2;P2;SDS_P1;SDS_P2;PMS_P1;PMS_P2;Temp;Humidity;BMP_temperature;BMP_pressure;BME280_temperature;BME280_humidity;BME280_pressure;Samples;Min_cycle;Max_cycle;Signal;HPM_P1;HPM_P2
2023/03/15 00:00:13;;;;;;;8.95;1.38;;;2.60;99.90;;;;;;4968782;28;20039;-65
2023/03/15 00:02:40;;;;;;;8.07;1.20;;;2.60;99.90;;;;;;4954252;28;20094;-65
2023/03/15 00:05:06;;;;;;;11.43;1.30;;;2.60;99.90;;;;;;4955185;29;20096;-65
2023/03/15 00:07:32;;;;;;;9.82;1.35;;;2.60;99.90;;;;;;4956354;28;20062;-65
2023/03/15 00:09:57;;;;;;;7.40;1.30;;;2.60;99.90;;;;;;4953835;29;20046;-65
2023/03/15 00:12:23;;;;;;;9.40;1.23;;;2.60;99.90;;;;;;4956736;28;20435;-65
2023/03/15 00:14:50;;;;;;;9.02;1.00;;;2.60;99.90;;;;;;4947206;28;20142;-65
2023/03/15 00:17:16;;;;;;;5.93;1.20;;;2.60;99.90;;;;;;4949805;28;20194;-65
2023/03/15 00:19:42;;;;;;;11.25;1.38;;;2.60;99.90;;;;;;4965977;28;20047;-65
2023/03/15 00:22:08;;;;;;;7.10;1.20;;;2.60;99.90;;;;;;4967931;28;20043;-67
2023/03/15 00:24:34;;;;;;;8.40;1.27;;;2.60;99.90;;;;;;4936978;29;20067;-66
2023/03/15 00:26:59;;;;;;;6.60;1.13;;;2.60;99.90;;;;;;4953019;28;20046;-66
2023/03/15 00:29:25;;;;;;;5.53;0.93;;;2.60;99.90;;;;;;4936648;29;20082;-66
2023/03/15 00:31:51;;;;;;;8.75;0.93;;;2.60;99.90;;;;;;4951319;28;20032;-67
2023/03/15 00:34:22;;;;;;;7.57;1.35;;;2.70;99.90;;;;;;4919033;29;20070;-66
2023/03/15 00:36:48;;;;;;;8.80;1.02;;;2.70;99.90;;;;;;4951141;28;20095;-66
2023/03/15 00:39:14;;;;;;;6.20;1.15;;;2.70;99.90;;;;;;4947877;28;20071;-66
2023/03/15 00:41:40;;;;;;;9.60;1.55;;;2.70;99.90;;;;;;4933333;29;20047;-67
2023/03/15 00:44:06;;;;;;;5.38;0.80;;;2.70;99.90;;;;;;4934603;29;20054;-66
2023/03/15 00:46:32;;;;;;;6.10;1.25;;;2.70;99.90;;;;;;4945017;28;20050;-66
2023/03/15 00:48:57;;;;;;;9.43;1.02;;;2.70;99.90;;;;;;4971675;28;20046;-67
2023/03/15 00:51:23;;;;;;;7.38;1.27;;;2.60;99.90;;;;;;4970191;28;20065;-67
2023/03/15 00:53:51;;;;;;;8.80;1.20;;;2.60;99.90;;;;;;4970082;28;20053;-66
2023/03/15 00:56:20;;;;;;;7.47;1.00;;;2.50;99.90;;;;;;4970172;28;20043;-66
2023/03/15 00:58:46;;;;;;;7.53;0.90;;;2.50;99.90;;;;;;4956372;28;20121;-66
2023/03/15 01:01:15;;;;;;;7.95;1.25;;;2.40;99.90;;;;;;4956571;28;20483;-66
2023/03/15 01:03:42;;;;;;;6.93;1.15;;;2.40;99.90;;;;;;4959534;28;20046;-67
2023/03/15 01:06:10;;;;;;;8.77;1.60;;;2.40;99.90;;;;;;4958192;28;20046;-67
2023/03/15 01:08:36;;;;;;;8.27;1.10;;;2.30;99.90;;;;;;4957270;28;20054;-66
2023/03/15 01:11:04;;;;;;;7.85;1.25;;;2.30;99.90;;;;;;4956265;28;20043;-67
2023/03/15 01:13:30;;;;;;;8.43;1.10;;;2.20;99.90;;;;;;4990686;28;20045;-66
2023/03/15 01:15:56;;;;;;;7.55;1.08;;;2.20;99.90;;;;;;4957725;28;20129;-67
2023/03/15 01:18:22;;;;;;;4.88;1.08;;;2.20;99.90;;;;;;4957614;28;20089;-66
2023/03/15 01:20:47;;;;;;;10.13;1.50;;;2.20;99.90;;;;;;4976687;28;20514;-66
2023/03/15 01:23:13;;;;;;;5.82;1.00;;;2.20;99.90;;;;;;4994113;28;20089;-66
2023/03/15 01:25:39;;;;;;;5.85;0.90;;;2.20;99.90;;;;;;4977729;28;20043;-66
2023/03/15 01:28:05;;;;;;;6.03;1.08;;;2.20;99.90;;;;;;4977551;28;20086;-66
2023/03/15 01:30:31;;;;;;;5.40;1.08;;;2.20;99.90;;;;;;4974681;28;20135;-67
2023/03/15 01:32:57;;;;;;;7.57;1.00;;;2.20;99.90;;;;;;4973935;28;20114;-66
2023/03/15 01:35:22;;;;;;;4.90;0.80;;;2.20;99.90;;;;;;4975805;28;20110;-66
2023/03/15 01:37:49;;;;;;;6.13;0.88;;;2.10;99.90;;;;;;4975228;28;20158;-66
2023/03/15 01:40:15;;;;;;;5.22;0.60;;;2.10;99.90;;;;;;4975352;28;20046;-66
2023/03/15 01:43:21;;;;;;;4.93;0.90;;;2.10;99.90;;;;;;4958370;28;20059;-66
2023/03/15 01:46:01;;;;;;;7.38;0.98;;;2.00;99.90;;;;;;4960566;28;20046;-66
2023/03/15 01:48:43;;;;;;;5.10;0.90;;;1.90;99.90;;;;;;4953356;28;20075;-66
2023/03/15 01:51:35;;;;;;;8.20;1.00;;;1.90;99.90;;;;;;4936363;29;20051;-65
2023/03/15 01:54:18;;;;;;;5.32;0.68;;;1.90;99.90;;;;;;4938371;29;20034;-65
2023/03/15 01:56:49;;;;;;;7.38;0.73;;;1.80;99.90;;;;;;4958602;28;20043;-65
2023/03/15 01:59:22;;;;;;;4.50;0.70;;;1.70;99.90;;;;;;4939474;28;20043;-65
2023/03/15 02:01:49;;;;;;;3.60;0.70;;;1.70;99.90;;;;;;4969705;28;20067;-65
2023/03/15 02:04:23;;;;;;;6.47;0.80;;;1.60;99.90;;;;;;4957863;28;20053;-65
2023/03/15 02:06:49;;;;;;;;;;;1.60;99.90;;;;;;4959600;28;20360;-65
2023/03/15 02:09:17;;;;;;;8.50;0.80;;;1.50;99.90;;;;;;4923578;29;19930;-65
2023/03/15 02:11:43;;;;;;;8.85;1.20;;;1.40;99.90;;;;;;4955423;28;20043;-65
2023/03/15 02:14:11;;;;;;;8.77;1.13;;;1.40;99.90;;;;;;4958428;28;20046;-65
2023/03/15 02:16:38;;;;;;;7.22;0.80;;;1.30;99.90;;;;;;4935603;29;20521;-65
2023/03/15 02:19:10;;;;;;;8.20;0.95;;;1.30;99.90;;;;;;4955629;28;20043;-65
2023/03/15 02:21:46;;;;;;;4.45;0.80;;;1.30;99.90;;;;;;4946203;29;20035;-65
2023/03/15 02:24:30;;;;;;;3.08;0.60;;;1.30;99.90;;;;;;4973228;28;20051;-65
2023/03/15 02:26:57;;;;;;;7.45;0.50;;;1.20;99.90;;;;;;4953066;28;21015;-65
2023/03/15 02:29:25;;;;;;;5.18;0.47;;;1.20;99.90;;;;;;4939941;29;20043;-65
2023/03/15 02:31:52;;;;;;;7.13;0.52;;;1.10;99.90;;;;;;4936618;29;20039;-65
2023/03/15 02:34:18;;;;;;;4.63;0.88;;;1.10;99.90;;;;;;4949787;28;20051;-65
2023/03/15 02:36:43;;;;;;;6.28;0.68;;;1.10;99.90;;;;;;4952529;28;20035;-66
2023/03/15 02:39:18;;;;;;;4.05;0.50;;;1.10;99.90;;;;;;4954442;28;20412;-65
2023/03/15 02:41:48;;;;;;;3.70;0.57;;;1.10;99.90;;;;;;4941230;28;20050;-65
2023/03/15 02:44:26;;;;;;;5.40;0.50;;;1.00;99.90;;;;;;4953966;28;20499;-65
2023/03/15 02:46:55;;;;;;;7.00;1.52;;;1.10;99.90;;;;;;4962014;28;20493;-65
2023/03/15 02:49:25;;;;;;;5.30;0.60;;;1.00;99.90;;;;;;4956843;28;20047;-65
2023/03/15 02:51:51;;;;;;;7.05;0.77;;;1.00;99.90;;;;;;4966224;28;20053;-65
2023/03/15 02:54:17;;;;;;;5.50;0.68;;;0.90;99.90;;;;;;4967844;28;20406;-66
2023/03/15 02:56:42;;;;;;;5.95;0.75;;;0.90;99.90;;;;;;4974609;28;20046;-66
2023/03/15 02:59:08;;;;;;;3.45;0.60;;;0.80;99.90;;;;;;4975950;28;20468;-66
2023/03/15 03:01:35;;;;;;;5.90;0.85;;;0.80;99.90;;;;;;4968061;28;20040;-65
2023/03/15 03:04:02;;;;;;;8.45;0.85;;;0.80;99.90;;;;;;4974424;28;20042;-65
2023/03/15 03:06:27;;;;;;;4.95;0.70;;;0.70;99.90;;;;;;4973238;28;20117;-65
2023/03/15 03:08:53;;;;;;;4.32;0.73;;;0.70;99.90;;;;;;4960054;28;20138;-65
2023/03/15 03:11:19;;;;;;;6.57;1.58;;;0.70;99.90;;;;;;4988344;28;20082;-65
2023/03/15 03:13:45;;;;;;;8.18;1.00;;;0.60;99.90;;;;;;4958972;28;20077;-65
2023/03/15 03:16:11;;;;;;;8.15;0.98;;;0.50;99.90;;;;;;4974336;28;20109;-65
2023/03/15 03:18:37;;;;;;;7.88;0.88;;;0.50;99.90;;;;;;4955935;28;20121;-65
2023/03/15 03:21:06;;;;;;;5.07;0.63;;;0.50;99.90;;;;;;4988009;28;20054;-65
2023/03/15 03:23:33;;;;;;;10.15;0.95;;;0.40;99.90;;;;;;4973307;28;20053;-65
2023/03/15 03:25:59;;;;;;;7.10;1.05;;;0.40;99.90;;;;;;4955758;28;20047;-65
2023/03/15 03:28:29;;;;;;;12.05;1.33;;;0.30;99.90;;;;;;4958198;28;20030;-66
2023/03/15 03:30:55;;;;;;;6.30;0.80;;;0.30;99.90;;;;;;4969388;28;20035;-66
2023/03/15 03:33:22;;;;;;;6.30;0.90;;;0.30;99.90;;;;;;4973874;28;20043;-65
2023/03/15 03:35:49;;;;;;;4.18;0.60;;;0.20;99.90;;;;;;4957080;28;20058;-66
2023/03/15 03:38:15;;;;;;;4.32;0.70;;;0.10;99.90;;;;;;4950070;28;20101;-65
2023/03/15 03:40:41;;;;;;;7.40;0.73;;;0.10;99.90;;;;;;4954855;28;20050;-65
2023/03/15 03:43:08;;;;;;;5.85;0.60;;;0.00;99.90;;;;;;4971965;28;20400;-66
2023/03/15 03:45:34;;;;;;;8.63;1.00;;;0.00;99.90;;;;;;4953218;28;20447;-65
2023/03/15 03:48:00;;;;;;;3.67;0.65;;;0.00;99.90;;;;;;4973447;28;20459;-65
2023/03/15 03:50:26;;;;;;;4.43;0.75;;;0.00;99.90;;;;;;4954719;28;20043;-65
2023/03/15 03:52:53;;;;;;;7.57;0.60;;;-0.10;99.90;;;;;;4970729;28;20519;-65
2023/03/15 03:55:23;;;;;;;6.45;1.27;;;-0.10;99.90;;;;;;4970630;28;20042;-65
2023/03/15 03:57:50;;;;;;;9.85;1.05;;;-0.10;99.90;;;;;;4965955;28;20071;-65
2023/03/15 04:00:16;;;;;;;6.28;0.77;;;-0.10;99.90;;;;;;4954887;28;20078;-65
2023/03/15 04:02:42;;;;;;;6.57;0.73;;;-0.20;99.90;;;;;;4970916;28;20035;-65
2023/03/15 04:05:10;;;;;;;7.25;0.80;;;-0.20;99.90;;;;;;4972785;28;20086;-66
2023/03/15 04:07:36;;;;;;;8.40;1.00;;;-0.20;99.90;;;;;;4971961;28;20560;-65
2023/03/15 04:10:02;;;;;;;4.22;0.80;;;-0.20;99.90;;;;;;4969329;28;20551;-65
2023/03/15 04:12:27;;;;;;;3.17;0.50;;;-0.20;99.90;;;;;;4971223;28;20086;-65
2023/03/15 04:14:53;;;;;;;5.53;0.50;;;-0.20;99.90;;;;;;4973125;28;20376;-66
2023/03/15 04:17:19;;;;;;;6.13;0.82;;;-0.20;99.90;;;;;;4968328;28;20517;-65
2023/03/15 04:19:45;;;;;;;8.57;0.93;;;-0.20;99.90;;;;;;4974302;28;20162;-65
2023/03/15 04:22:14;;;;;;;2.70;0.60;;;-0.10;99.90;;;;;;4970935;28;20125;-65
2023/03/15 04:24:43;;;;;;;6.30;0.75;;;-0.10;99.90;;;;;;4971567;28;20051;-65
2023/03/15 04:27:13;;;;;;;13.07;1.63;;;0.00;99.90;;;;;;4952554;28;20335;-65
2023/03/15 04:29:41;;;;;;;6.10;0.70;;;0.00;99.90;;;;;;4972325;28;20133;-66
2023/03/15 04:32:07;;;;;;;6.05;0.90;;;0.00;99.90;;;;;;4955013;28;20042;-65
2023/03/15 04:34:37;;;;;;;5.55;0.73;;;0.00;99.90;;;;;;4988212;28;20070;-66
2023/03/15 04:37:03;;;;;;;6.40;0.80;;;0.00;99.90;;;;;;4974788;28;20062;-66
2023/03/15 04:39:29;;;;;;;5.72;0.68;;;0.00;99.90;;;;;;4977004;28;20491;-66
2023/03/15 04:41:55;;;;;;;5.88;0.90;;;0.00;99.90;;;;;;4975599;28;20034;-66
2023/03/15 04:44:20;;;;;;;3.13;0.75;;;0.00;99.90;;;;;;4940902;28;20042;-66
2023/03/15 04:46:46;;;;;;;4.03;0.50;;;0.00;99.90;;;;;;4989102;28;20110;-66
2023/03/15 04:49:13;;;;;;;8.52;0.77;;;-0.10;99.90;;;;;;4979215;28;20049;-66
2023/03/15 04:51:38;;;;;;;7.03;0.77;;;-0.10;99.90;;;;;;4956655;28;20439;-66
2023/03/15 04:54:04;;;;;;;5.53;0.70;;;-0.10;99.90;;;;;;4974972;28;20078;-66
2023/03/15 04:56:30;;;;;;;7.38;0.60;;;-0.20;99.90;;;;;;4978662;28;20145;-66
2023/03/15 04:58:55;;;;;;;7.45;0.85;;;-0.20;99.90;;;;;;4975970;28;20121;-66
2023/03/15 05:01:27;;;;;;;5.78;0.70;;;-0.30;99.90;;;;;;4974917;28;20098;-66
2023/03/15 05:03:53;;;;;;;7.05;0.73;;;-0.30;99.90;;;;;;4974237;28;20039;-64
2023/03/15 05:06:18;;;;;;;3.28;0.70;;;-0.30;99.90;;;;;;4973827;28;20534;-65
2023/03/15 05:08:45;;;;;;;4.53;0.60;;;-0.30;99.90;;;;;;4974131;28;20596;-65
2023/03/15 05:11:11;;;;;;;5.30;0.65;;;-0.40;99.90;;;;;;4973709;28;20090;-65
2023/03/15 05:13:37;;;;;;;7.63;0.77;;;-0.40;99.90;;;;;;4975250;28;20087;-65
2023/03/15 05:16:03;;;;;;;5.43;0.70;;;-0.40;99.90;;;;;;4958402;28;20043;-65
2023/03/15 05:18:28;;;;;;;9.02;1.17;;;-0.40;99.90;;;;;;4941194;28;20066;-65
2023/03/15 05:20:54;;;;;;;5.13;0.75;;;-0.50;99.90;;;;;;4975931;28;20035;-65
2023/03/15 05:23:22;;;;;;;7.95;0.93;;;-0.50;99.90;;;;;;4974437;28;20065;-65
2023/03/15 05:25:52;;;;;;;4.45;0.50;;;-0.50;99.90;;;;;;4976235;28;20081;-65
2023/03/15 05:28:19;;;;;;;4.80;0.60;;;-0.50;99.90;;;;;;4955946;28;20039;-65
2023/03/15 05:30:45;;;;;;;10.63;1.25;;;-0.50;99.90;;;;;;4970810;28;20384;-64
2023/03/15 05:33:11;;;;;;;4.63;0.98;;;-0.50;99.90;;;;;;4972920;28;20067;-65
2023/03/15 05:35:36;;;;;;;7.55;0.75;;;-0.40;99.90;;;;;;4974766;28;20035;-65
2023/03/15 05:38:03;;;;;;;3.83;0.73;;;-0.40;99.90;;;;;;4974505;28;20074;-65
2023/03/15 05:40:29;;;;;;;6.32;1.23;;;-0.30;99.90;;;;;;4955605;28;20178;-65
2023/03/15 05:42:55;;;;;;;5.53;0.90;;;-0.20;99.90;;;;;;4987676;28;20446;-65
2023/03/15 05:45:21;;;;;;;7.97;0.80;;;-0.20;99.90;;;;;;4955357;28;20082;-66
2023/03/15 05:47:47;;;;;;;8.18;0.95;;;-0.10;99.90;;;;;;4956085;28;20647;-66
2023/03/15 05:50:12;;;;;;;6.78;1.10;;;0.00;99.90;;;;;;4972915;28;20042;-66
2023/03/15 05:52:38;;;;;;;6.22;0.77;;;0.00;99.90;;;;;;4989384;28;20050;-66
2023/03/15 05:55:04;;;;;;;2.75;1.20;;;0.10;99.90;;;;;;4974208;28;20054;-64
2023/03/15 05:57:30;;;;;;;4.32;0.80;;;0.10;99.90;;;;;;4974710;28;20057;-65
2023/03/15 05:59:56;;;;;;;5.50;0.63;;;0.20;99.90;;;;;;4971293;28;20039;-65
2023/03/15 06:02:21;;;;;;;11.13;0.98;;;0.30;99.90;;;;;;4988202;28;20109;-65
2023/03/15 06:04:47;;;;;;;4.95;0.50;;;0.30;99.90;;;;;;4974718;28;20462;-65
2023/03/15 06:07:13;;;;;;;6.57;1.08;;;0.30;99.90;;;;;;4958651;28;20094;-65
2023/03/15 06:09:38;;;;;;;6.05;0.90;;;0.40;99.90;;;;;;4953899;28;20046;-65
2023/03/15 06:12:04;;;;;;;5.95;1.42;;;0.40;99.90;;;;;;4972816;28;20047;-65
2023/03/15 06:14:30;;;;;;;4.82;1.05;;;0.50;99.90;;;;;;4972436;28;20039;-64
2023/03/15 06:16:56;;;;;;;8.30;1.05;;;0.50;99.90;;;;;;4972657;28;20049;-65
2023/03/15 06:19:23;;;;;;;7.22;1.10;;;0.50;99.90;;;;;;4988690;28;20321;-65
2023/03/15 06:21:50;;;;;;;4.18;1.13;;;0.60;99.90;;;;;;4973787;28;20246;-65
2023/03/15 06:24:15;;;;;;;4.07;0.57;;;0.60;99.90;;;;;;4969631;28;20141;-65
2023/03/15 06:26:42;;;;;;;5.30;0.75;;;0.50;99.90;;;;;;4972182;28;20035;-65
2023/03/15 06:29:08;;;;;;;6.72;0.75;;;0.60;99.90;;;;;;4989439;28;20073;-65
2023/03/15 06:31:33;;;;;;;4.45;0.52;;;0.60;99.90;;;;;;4986080;28;20046;-65
2023/03/15 06:34:00;;;;;;;7.30;0.70;;;0.50;99.90;;;;;;4973262;28;20039;-65
2023/03/15 06:36:26;;;;;;;5.45;1.27;;;0.60;99.90;;;;;;4970337;28;21942;-65
2023/03/15 06:38:53;;;;;;;6.43;1.00;;;0.50;99.90;;;;;;4989126;28;20043;-64
2023/03/15 06:41:20;;;;;;;3.13;0.50;;;0.50;99.90;;;;;;4940139;28;20066;-65
2023/03/15 06:43:46;;;;;;;9.73;0.65;;;0.60;99.90;;;;;;4964936;28;20094;-65
2023/03/15 06:46:11;;;;;;;9.65;1.30;;;0.60;99.90;;;;;;4971694;28;20070;-65
2023/03/15 06:48:37;;;;;;;5.15;0.77;;;0.70;99.90;;;;;;4975909;28;20062;-65
2023/03/15 06:51:04;;;;;;;4.43;0.60;;;0.80;99.90;;;;;;4977098;28;20038;-65
2023/03/15 06:53:30;;;;;;;3.58;0.55;;;0.90;99.90;;;;;;4974900;28;20138;-68
2023/03/15 06:55:56;;;;;;;5.30;0.80;;;1.00;99.90;;;;;;4976710;28;20050;-65
2023/03/15 06:58:22;;;;;;;3.72;0.73;;;1.10;99.90;;;;;;4958734;28;20570;-65
2023/03/15 07:00:49;;;;;;;4.45;0.77;;;1.20;99.90;;;;;;4972197;28;20064;-64
2023/03/15 07:03:15;;;;;;;4.50;0.88;;;1.40;99.90;;;;;;4971223;28;20045;-64
2023/03/15 07:05:40;;;;;;;2.92;0.68;;;1.50;99.90;;;;;;4950334;28;20499;-64
2023/03/15 07:08:06;;;;;;;7.38;0.75;;;1.60;99.90;;;;;;4949287;28;20050;-65
2023/03/15 07:10:32;;;;;;;8.30;0.93;;;1.70;99.90;;;;;;4968865;28;20163;-64
2023/03/15 07:12:58;;;;;;;6.50;0.90;;;1.90;99.90;;;;;;4966794;28;20042;-64
2023/03/15 07:15:23;;;;;;;5.07;0.80;;;2.00;99.90;;;;;;4953624;28;20084;-65
2023/03/15 07:17:49;;;;;;;1.63;0.40;;;2.20;99.90;;;;;;4968669;28;20054;-65
2023/03/15 07:20:15;;;;;;;4.07;0.52;;;2.30;99.90;;;;;;4971895;28;20049;-65
2023/03/15 07:22:40;;;;;;;6.32;0.85;;;2.40;99.90;;;;;;4972523;28;20073;-65
2023/03/15 07:25:06;;;;;;;5.40;0.75;;;2.70;99.90;;;;;;4972668;28;20043;-64
2023/03/15 07:27:33;;;;;;;5.30;0.60;;;3.00;99.90;;;;;;4955650;28;20039;-64
2023/03/15 07:29:59;;;;;;;8.77;1.00;;;3.50;99.90;;;;;;4954639;28;20031;-64
2023/03/15 07:32:25;;;;;;;7.38;1.35;;;4.20;99.90;;;;;;4949739;28;20102;-65
2023/03/15 07:34:51;;;;;;;12.65;1.00;;;5.00;99.90;;;;;;4955767;28;20078;-65
2023/03/15 07:37:17;;;;;;;9.18;1.10;;;5.80;99.90;;;;;;4970480;28;20059;-65
2023/03/15 07:39:43;;;;;;;6.25;1.10;;;6.50;99.90;;;;;;4967317;28;20046;-66
2023/03/15 07:42:09;;;;;;;7.13;1.13;;;7.30;99.90;;;;;;4953223;28;20180;-66
2023/03/15 07:44:34;;;;;;;5.45;1.00;;;7.80;99.90;;;;;;4970241;28;20082;-66
2023/03/15 07:47:00;;;;;;;6.10;1.00;;;8.10;99.90;;;;;;4950830;28;20054;-66
2023/03/15 07:49:26;;;;;;;6.82;1.23;;;8.60;99.90;;;;;;4969538;28;20484;-66
2023/03/15 07:51:52;;;;;;;7.53;0.82;;;8.90;99.90;;;;;;4968323;28;20127;-66
2023/03/15 07:54:18;;;;;;;7.53;1.00;;;9.40;99.90;;;;;;4969849;28;20046;-66
2023/03/15 07:56:44;;;;;;;8.98;1.00;;;9.90;99.90;;;;;;4985411;28;20038;-66
2023/03/15 07:59:09;;;;;;;5.95;0.85;;;10.30;99.90;;;;;;4969145;28;20065;-66
2023/03/15 08:01:35;;;;;;;6.47;1.33;;;10.60;99.90;;;;;;4969054;28;20126;-66
2023/03/15 08:04:01;;;;;;;5.80;0.82;;;10.80;99.90;;;;;;4984085;28;20114;-64
2023/03/15 08:06:27;;;;;;;3.78;0.77;;;11.00;99.90;;;;;;4951443;28;20038;-65
2023/03/15 08:08:52;;;;;;;5.38;0.90;;;11.30;99.90;;;;;;4971278;28;20415;-65
2023/03/15 08:11:18;;;;;;;9.32;1.27;;;11.50;99.90;;;;;;4972653;28;20399;-65
2023/03/15 08:13:44;;;;;;;7.95;0.88;;;12.00;99.90;;;;;;4988566;28;20067;-65
2023/03/15 08:16:09;;;;;;;6.05;1.17;;;12.20;99.90;;;;;;4972944;28;20834;-65
2023/03/15 08:18:35;;;;;;;4.30;0.70;;;12.40;99.90;;;;;;4973246;28;20376;-65
2023/03/15 08:21:01;;;;;;;9.18;0.85;;;12.60;99.90;;;;;;4955010;28;20120;-65
2023/03/15 08:23:27;;;;;;;5.07;1.00;;;12.90;99.90;;;;;;4973341;28;20038;-65
2023/03/15 08:25:52;;;;;;;7.50;0.90;;;13.00;99.90;;;;;;4973435;28;20039;-65
2023/03/15 08:28:18;;;;;;;6.88;0.80;;;13.30;99.90;;;;;;4957771;28;20086;-65
2023/03/15 08:30:44;;;;;;;6.53;1.10;;;13.40;99.90;;;;;;4971702;28;20039;-65
2023/03/15 08:33:11;;;;;;;6.85;1.00;;;13.60;99.90;;;;;;4971471;28;20043;-65
2023/03/15 08:35:37;;;;;;;8.98;1.20;;;13.70;99.90;;;;;;4971788;28;20364;-65
2023/03/15 08:38:03;;;;;;;5.47;1.10;;;14.00;99.90;;;;;;4973072;28;20399;-65
2023/03/15 08:40:29;;;;;;;5.38;1.02;;;14.20;99.90;;;;;;4971895;28;20062;-65
2023/03/15 08:42:55;;;;;;;5.72;1.10;;;14.40;99.90;;;;;;4956561;28;20077;-65
2023/03/15 08:45:23;;;;;;;7.50;1.50;;;14.20;99.90;;;;;;4972107;28;20038;-65
2023/03/15 08:47:54;;;;;;;4.43;1.10;;;14.20;99.90;;;;;;4972105;28;20062;-65
2023/03/15 08:50:20;;;;;;;6.38;1.10;;;14.40;99.90;;;;;;4972017;28;20031;-65
2023/03/15 08:52:45;;;;;;;6.28;1.10;;;14.10;99.90;;;;;;4972893;28;20053;-65
2023/03/15 08:55:13;;;;;;;4.80;1.17;;;13.90;99.90;;;;;;4975493;28;20045;-65
2023/03/15 08:57:39;;;;;;;5.28;1.13;;;14.10;99.90;;;;;;4950170;28;20047;-65
2023/03/15 09:00:09;;;;;;;6.22;1.00;;;14.60;99.90;;;;;;4972623;28;20550;-65
2023/03/15 09:02:36;;;;;;;6.22;0.90;;;14.80;99.90;;;;;;4972191;28;20129;-65
2023/03/15 09:05:03;;;;;;;2.53;0.70;;;14.80;99.90;;;;;;4972504;28;20047;-65
2023/03/15 09:07:29;;;;;;;4.63;1.27;;;14.70;99.90;;;;;;4955987;28;20506;-65
2023/03/15 09:09:54;;;;;;;5.20;1.15;;;14.60;99.90;;;;;;4956373;28;20082;-65
2023/03/15 09:12:20;;;;;;;3.60;1.02;;;14.80;99.90;;;;;;4971940;28;20513;-65
2023/03/15 09:14:46;;;;;;;5.55;1.20;;;15.00;99.90;;;;;;4970626;28;20442;-66
2023/03/15 09:17:12;;;;;;;3.40;0.90;;;15.10;99.90;;;;;;4971300;28;20027;-65
2023/03/15 09:19:38;;;;;;;4.05;1.10;;;15.10;99.90;;;;;;4971646;28;20050;-65
2023/03/15 09:22:05;;;;;;;5.18;1.00;;;15.20;99.90;;;;;;4972214;28;20090;-65
2023/03/15 09:24:31;;;;;;;5.80;1.10;;;15.60;99.90;;;;;;4969394;28;20385;-66
2023/03/15 09:26:57;;;;;;;3.35;0.82;;;15.90;99.90;;;;;;4972462;28;20042;-65
2023/03/15 09:29:22;;;;;;;4.13;0.82;;;16.00;99.20;;;;;;4972751;28;20275;-65
2023/03/15 09:31:48;;;;;;;3.60;0.70;;;15.80;98.50;;;;;;4940402;28;20042;-65
2023/03/15 09:34:14;;;;;;;3.22;0.63;;;15.80;98.80;;;;;;4971327;28;20043;-66
2023/03/15 09:36:40;;;;;;;5.28;1.00;;;15.90;98.30;;;;;;4954782;28;20039;-66
2023/03/15 09:39:07;;;;;;;3.17;0.55;;;16.10;97.80;;;;;;4953328;28;20034;-66
2023/03/15 09:41:45;;;;;;;4.70;0.63;;;15.80;96.40;;;;;;4972744;28;20078;-66
2023/03/15 09:44:40;;;;;;;6.25;1.05;;;16.00;94.30;;;;;;4955577;28;20053;-66
2023/03/15 09:47:24;;;;;;;4.95;0.90;;;16.10;95.40;;;;;;4945336;28;20058;-66
2023/03/15 09:50:06;;;;;;;3.45;0.60;;;16.00;94.00;;;;;;4970286;28;20118;-65
2023/03/15 09:52:38;;;;;;;4.45;1.00;;;15.90;93.70;;;;;;4974351;28;20510;-65
2023/03/15 09:55:20;;;;;;;4.30;0.68;;;16.00;95.90;;;;;;4972341;28;20121;-65
2023/03/15 09:57:57;;;;;;;6.90;0.93;;;16.10;91.70;;;;;;4971582;28;20486;-65
2023/03/15 10:00:40;;;;;;;3.88;1.05;;;16.20;90.30;;;;;;4969700;28;20085;-65
2023/03/15 10:03:26;;;;;;;6.22;1.40;;;16.60;92.80;;;;;;4971816;28;20461;-65
2023/03/15 10:05:57;;;;;;;6.22;1.23;;;16.70;93.10;;;;;;4937226;28;20050;-65
2023/03/15 10:08:24;;;;;;;7.65;1.50;;;16.70;91.40;;;;;;4986126;28;20122;-66
2023/03/15 10:14:16;;;;;;;5.63;0.98;;;16.30;90.80;;;;;;4963510;28;20046;-66
2023/03/15 10:16:48;;;;;;;4.03;0.80;;;15.50;85.90;;;;;;4968624;28;20049;-65
2023/03/15 10:19:24;;;;;;;4.57;0.80;;;15.60;92.30;;;;;;4968356;28;20118;-66
2023/03/15 10:21:55;;;;;;;5.32;1.10;;;16.00;92.30;;;;;;4970627;28;20162;-66
2023/03/15 10:24:36;;;;;;;3.10;0.60;;;16.30;93.40;;;;;;4970093;28;20046;-65
2023/03/15 10:27:23;;;;;;;3.58;0.80;;;16.20;90.50;;;;;;4970207;28;20039;-65
2023/03/15 10:29:53;;;;;;;6.20;1.00;;;16.60;90.10;;;;;;4969453;28;20043;-66
2023/03/15 10:32:22;;;;;;;5.25;1.05;;;16.50;90.90;;;;;;4981176;28;20132;-65
2023/03/15 10:34:54;;;;;;;3.75;0.95;;;16.60;90.50;;;;;;4969017;28;20047;-65
2023/03/15 10:37:23;;;;;;;6.00;1.17;;;16.80;87.30;;;;;;4970133;28;20047;-66
2023/03/15 10:39:54;;;;;;;3.65;0.75;;;16.90;87.50;;;;;;4969477;28;20398;-66
2023/03/15 10:42:38;;;;;;;3.17;0.93;;;17.10;88.30;;;;;;4969740;28;20129;-66
2023/03/15 10:45:23;;;;;;;5.88;1.00;;;16.20;78.60;;;;;;4969715;28;20038;-66
2023/03/15 10:47:49;;;;;;;5.30;0.70;;;15.60;78.40;;;;;;4966881;28;20529;-66
2023/03/15 10:50:31;;;;;;;5.32;0.90;;;14.50;80.60;;;;;;4970622;28;20090;-66
2023/03/15 10:53:00;;;;;;;5.40;0.80;;;14.10;79.10;;;;;;4967991;28;20031;-65
2023/03/15 10:55:33;;;;;;;4.63;0.63;;;14.50;85.10;;;;;;4970535;28;20054;-66
2023/03/15 10:58:17;;;;;;;5.35;0.93;;;15.10;85.70;;;;;;4971356;28;20121;-66
2023/03/15 11:00:53;;;;;;;5.22;1.02;;;15.70;85.00;;;;;;4966999;28;20157;-66
2023/03/15 11:03:22;;;;;;;8.25;0.98;;;15.90;83.80;;;;;;4952890;28;20189;-66
2023/03/15 11:05:50;;;;;;;3.22;0.70;;;16.20;84.10;;;;;;4969976;28;20046;-66
2023/03/15 11:08:18;;;;;;;3.28;0.73;;;16.20;81.70;;;;;;4970251;28;20035;-67
2023/03/15 11:10:47;;;;;;;4.75;0.88;;;16.20;80.40;;;;;;4969859;28;20043;-67
2023/03/15 11:13:24;;;;;;;3.78;0.70;;;16.50;77.40;;;;;;4970793;28;20093;-67
2023/03/15 11:16:04;;;;;;;5.47;0.90;;;16.50;70.70;;;;;;4967452;28;20153;-66
2023/03/15 11:18:52;;;;;;;4.10;0.90;;;16.40;74.10;;;;;;4970987;28;20046;-67
2023/03/15 11:21:19;;;;;;;3.45;0.80;;;16.00;73.80;;;;;;4951848;28;20546;-67
2023/03/15 11:23:50;;;;;;;4.88;0.90;;;15.70;75.10;;;;;;4970298;28;20506;-67
2023/03/15 11:26:24;;;;;;;7.32;0.90;;;15.80;75.20;;;;;;4970917;28;20495;-67
2023/03/15 11:28:51;;;;;;;;;;;16.00;72.80;;;;;;4968537;28;20050;-67
2023/03/15 11:31:20;;;;;;;6.18;0.90;;;16.30;66.10;;;;;;4952052;28;19988;-67
2023/03/15 11:34:07;;;;;;;6.90;1.23;;;16.50;79.00;;;;;;4968926;28;20117;-67
2023/03/15 11:36:38;;;;;;;6.40;0.80;;;17.00;71.10;;;;;;4969690;28;20046;-67
2023/03/15 11:39:05;;;;;;;4.65;0.77;;;17.10;73.80;;;;;;4969286;28;20128;-67
2023/03/15 11:41:48;;;;;;;4.00;0.80;;;17.10;74.80;;;;;;4969858;28;20046;-67
2023/03/15 11:44:17;;;;;;;4.87;0.83;;;17.10;70.40;;;;;;4969951;28;20050;-67
2023/03/15 11:46:54;;;;;;;3.85;0.68;;;17.30;75.00;;;;;;4966945;28;20039;-67
2023/03/15 11:49:48;;;;;;;4.50;0.88;;;17.50;70.40;;;;;;4968618;28;20054;-67
2023/03/15 11:52:19;;;;;;;5.70;0.90;;;17.70;70.40;;;;;;4968886;28;20474;-67
2023/03/15 11:54:45;;;;;;;4.28;1.13;;;18.00;71.80;;;;;;4967621;28;20518;-67
2023/03/15 11:57:36;;;;;;;3.85;1.00;;;18.20;71.20;;;;;;4969899;28;20037;-67
2023/03/15 12:00:33;;;;;;;7.13;0.80;;;18.30;64.00;;;;;;4968161;28;20157;-67
2023/03/15 12:03:22;;;;;;;2.90;0.60;;;18.10;64.40;;;;;;4966054;28;20077;-67
2023/03/15 12:06:04;;;;;;;5.28;1.10;;;18.20;63.20;;;;;;4950454;28;20050;-67
2023/03/15 12:08:53;;;;;;;4.47;0.80;;;18.10;65.70;;;;;;4983830;28;20082;-67
2023/03/15 12:11:21;;;;;;;3.03;0.88;;;17.90;60.70;;;;;;4966637;28;20518;-67
2023/03/15 12:13:59;;;;;;;2.90;0.70;;;17.80;65.70;;;;;;4968022;28;20054;-67
2023/03/15 12:16:30;;;;;;;4.60;1.02;;;17.90;62.30;;;;;;4966842;28;20645;-67
2023/03/15 12:18:58;;;;;;;3.08;0.60;;;16.90;65.10;;;;;;4969363;28;20047;-67
2023/03/15 12:21:39;;;;;;;3.17;0.88;;;16.60;66.10;;;;;;4951557;28;20078;-67
2023/03/15 12:24:12;;;;;;;4.53;0.80;;;16.80;60.40;;;;;;4968907;28;20125;-67
2023/03/15 12:26:47;;;;;;;4.38;1.00;;;16.80;62.90;;;;;;4969434;28;20054;-67
2023/03/15 12:29:23;;;;;;;;;;;16.50;61.60;;;;;;4969713;28;20038;-67
2023/03/15 12:32:04;;;;;;;5.18;1.02;;;16.30;57.20;;;;;;4967381;28;19974;-66
2023/03/15 12:35:15;;;;;;;3.83;0.68;;;16.80;64.60;;;;;;4950217;28;20081;-67
2023/03/15 12:37:47;;;;;;;3.28;0.70;;;17.60;58.90;;;;;;4890045;29;20044;-67
2023/03/15 12:40:17;;;;;;;4.63;0.80;;;17.80;63.50;;;;;;4890676;29;20110;-67
2023/03/15 12:42:43;;;;;;;4.13;0.90;;;18.10;62.30;;;;;;4920245;28;20062;-67
2023/03/15 12:45:32;;;;;;;4.63;0.93;;;18.00;61.40;;;;;;4967468;28;20502;-67
2023/03/15 12:47:57;;;;;;;7.72;1.00;;;18.30;60.20;;;;;;4949070;28;20047;-67
2023/03/15 12:50:42;;;;;;;4.82;0.98;;;18.30;61.40;;;;;;4968800;28;20097;-67
2023/03/15 12:53:29;;;;;;;4.88;1.00;;;18.40;57.40;;;;;;4969723;28;20129;-67
2023/03/15 12:55:57;;;;;;;5.03;1.17;;;18.60;60.50;;;;;;4967472;28;20049;-67
2023/03/15 12:58:35;;;;;;;5.13;1.02;;;18.70;60.50;;;;;;4953771;28;20087;-67
2023/03/15 13:01:04;;;;;;;1.92;0.43;;;18.50;58.70;;;;;;4969384;28;20109;-67
2023/03/15 13:03:33;;;;;;;3.80;1.08;;;18.30;58.60;;;;;;4972771;28;20368;-67
2023/03/15 13:06:21;;;;;;;5.78;0.90;;;17.60;56.40;;;;;;4955307;28;20043;-66